sensor_id;sensor_type;location;lat;lon;timestamp;temperature;humidity
11532;DHT22;5822;51.000;5.874;2023-01-29T00:01:42;2.90;99.90
11532;DHT22;5822;51.000;5.874;2023-01-29T00:04:08;3.00;99.90
11532;DHT22;5822;51.000;5.874;2023-01-29T00:06:33;3.00;99.90
11532;DHT22;5822;51.000;5.874;2023-01-29T00:08:59;3.20;99.90
11532;DHT22;5822;51.000;5.874;2023-01-29T00:11:24;3.30;99.90
11532;DHT22;5822;51.000;5.874;2023-01-29T00:13:51;3.30;99.90
11532;DHT22;5822;51.000;5.874;2023-01-29T00:16:17;3.20;99.90
11532;DHT22;5822;51.000;5.874;2023-01-29T00:18:43;3.10;99.90
11532;DHT22;5822;51.000;5.874;2023-01-29T00:21:13;3.20;99.90
11532;DHT22;5822;51.000;5.874;2023-01-29T00:23:39;3.20;99.90
11532;DHT22;5822;51.000;5.874;2023-01-29T00:26:05;3.30;99.90
11532;DHT22;5822;51.000;5.874;2023-01-29T00:28:31;3.40;99.90
11532;DHT22;5822;51.000;5.874;2023-01-29T00:30:57;3.40;99.90
11532;DHT22;5822;51.000;5.874;2023-01-29T00:33:23;3.20;99.90
11532;DHT22;5822;51.000;5.874;2023-01-29T00:35:48;3.20;99.90
11532;DHT22;5822;51.000;5.874;2023-01-29T00:38:14;3.30;99.90
11532;DHT22;5822;51.000;5.874;2023-01-29T00:40:40;3.30;99.90
11532;DHT22;5822;51.000;5.874;2023-01-29T00:43:24;3.20;99.90
11532;DHT22;5822;51.000;5.874;2023-01-29T00:46:09;3.30;99.90
11532;DHT22;5822;51.000;5.874;2023-01-29T00:48:35;3.30;99.90
11532;DHT22;5822;51.000;5.874;2023-01-29T00:51:01;3.30;99.90
11532;DHT22;5822;51.000;5.874;2023-01-29T00:53:27;3.30;99.90
11532;DHT22;5822;51.000;5.874;2023-01-29T00:55:53;3.40;99.90
11532;DHT22;5822;51.000;5.874;2023-01-29T00:58:19;3.40;99.90
11532;DHT22;5822;51.000;5.874;2023-01-29T01:00:50;3.20;99.90
11532;DHT22;5822;51.000;5.874;2023-01-29T01:03:16;3.40;99.90
11532;DHT22;5822;51.000;5.874;2023-01-29T01:05:42;3.40;99.90
11532;DHT22;5822;51.000;5.874;2023-01-29T01:08:08;3.40;99.90
11532;DHT22;5822;51.000;5.874;2023-01-29T01:11:04;3.50;99.90
11532;DHT22;5822;51.000;5.874;2023-01-29T01:13:32;3.30;99.90
11532;DHT22;5822;51.000;5.874;2023-01-29T01:15:58;3.20;99.90
11532;DHT22;5822;51.000;5.874;2023-01-29T01:18:24;3.20;99.90
11532;DHT22;5822;51.000;5.874;2023-01-29T01:20:56;3.10;99.90
11532;DHT22;5822;51.000;5.874;2023-01-29T01:23:22;3.00;99.90
11532;DHT22;5822;51.000;5.874;2023-01-29T01:25:47;3.10;99.90
11532;DHT22;5822;51.000;5.874;2023-01-29T01:28:13;3.10;99.90
11532;DHT22;5822;51.000;5.874;2023-01-29T01:30:39;3.00;99.90
11532;DHT22;5822;51.000;5.874;2023-01-29T01:33:04;2.90;99.90
11532;DHT22;5822;51.000;5.874;2023-01-29T01:35:30;2.90;99.90
11532;DHT22;5822;51.000;5.874;2023-01-29T01:37:55;2.90;99.90
11532;DHT22;5822;51.000;5.874;2023-01-29T01:40:23;2.90;99.90
11532;DHT22;5822;51.000;5.874;2023-01-29T01:42:55;2.90;99.90
11532;DHT22;5822;51.000;5.874;2023-01-29T01:45:29;3.00;99.90
11532;DHT22;5822;51.000;5.874;2023-01-29T01:48:00;3.10;99.90
11532;DHT22;5822;51.000;5.874;2023-01-29T01:53:01;3.10;99.90
11532;DHT22;5822;51.000;5.874;2023-01-29T01:55:29;3.00;99.90
11532;DHT22;5822;51.000;5.874;2023-01-29T01:58:11;3.10;99.90
11532;DHT22;5822;51.000;5.874;2023-01-29T02:00:38;3.20;99.90
11532;DHT22;5822;51.000;5.874;2023-01-29T02:03:05;3.10;99.90
11532;DHT22;5822;51.000;5.874;2023-01-29T02:05:52;3.20;99.90
11532;DHT22;5822;51.000;5.874;2023-01-29T02:08:51;3.10;99.90
11532;DHT22;5822;51.000;5.874;2023-01-29T02:11:37;3.10;99.90
11532;DHT22;5822;51.000;5.874;2023-01-29T02:14:02;3.10;99.90
11532;DHT22;5822;51.000;5.874;2023-01-29T02:16:28;3.10;99.90
11532;DHT22;5822;51.000;5.874;2023-01-29T02:18:54;3.00;99.90
11532;DHT22;5822;51.000;5.874;2023-01-29T02:25:06;2.90;99.90
11532;DHT22;5822;51.000;5.874;2023-01-29T02:36:03;3.20;99.90
11532;DHT22;5822;51.000;5.874;2023-01-29T02:41:15;3.30;99.90
11532;DHT22;5822;51.000;5.874;2023-01-29T02:43:45;3.20;99.90
11532;DHT22;5822;51.000;5.874;2023-01-29T02:46:34;3.10;99.90
11532;DHT22;5822;51.000;5.874;2023-01-29T02:51:43;3.00;99.90
11532;DHT22;5822;51.000;5.874;2023-01-29T02:54:23;3.00;99.90
11532;DHT22;5822;51.000;5.874;2023-01-29T02:56:58;3.00;99.90
11532;DHT22;5822;51.000;5.874;2023-01-29T02:59:59;3.10;99.90
11532;DHT22;5822;51.000;5.874;2023-01-29T03:02:52;3.20;99.90
11532;DHT22;5822;51.000;5.874;2023-01-29T03:06:31;3.10;99.90
11532;DHT22;5822;51.000;5.874;2023-01-29T03:08:49;2.90;99.90
11532;DHT22;5822;51.000;5.874;2023-01-29T03:11:18;2.80;99.90
11532;DHT22;5822;51.000;5.874;2023-01-29T03:13:56;2.80;99.90
11532;DHT22;5822;51.000;5.874;2023-01-29T03:16:39;2.70;99.90
11532;DHT22;5822;51.000;5.874;2023-01-29T03:19:19;2.70;99.90
11532;DHT22;5822;51.000;5.874;2023-01-29T03:21:53;2.70;99.90
11532;DHT22;5822;51.000;5.874;2023-01-29T03:27:15;2.70;99.90
11532;DHT22;5822;51.000;5.874;2023-01-29T03:30:03;2.70;99.90
11532;DHT22;5822;51.000;5.874;2023-01-29T03:32:49;2.80;99.90
11532;DHT22;5822;51.000;5.874;2023-01-29T03:35:19;2.80;99.90
11532;DHT22;5822;51.000;5.874;2023-01-29T03:38:03;2.80;99.90
11532;DHT22;5822;51.000;5.874;2023-01-29T03:40:52;2.90;99.90
11532;DHT22;5822;51.000;5.874;2023-01-29T03:46:16;2.70;99.90
11532;DHT22;5822;51.000;5.874;2023-01-29T03:49:28;2.80;99.90
11532;DHT22;5822;51.000;5.874;2023-01-29T03:52:14;2.80;99.90
11532;DHT22;5822;51.000;5.874;2023-01-29T03:57:24;2.80;99.90
11532;DHT22;5822;51.000;5.874;2023-01-29T04:00:02;2.70;99.90
11532;DHT22;5822;51.000;5.874;2023-01-29T04:02:33;2.80;99.90
11532;DHT22;5822;51.000;5.874;2023-01-29T04:05:12;2.80;99.90
11532;DHT22;5822;51.000;5.874;2023-01-29T04:07:39;2.80;99.90
11532;DHT22;5822;51.000;5.874;2023-01-29T04:10:13;2.70;99.90
11532;DHT22;5822;51.000;5.874;2023-01-29T04:12:46;2.70;99.90
11532;DHT22;5822;51.000;5.874;2023-01-29T04:15:17;2.60;99.90
11532;DHT22;5822;51.000;5.874;2023-01-29T04:17:51;2.60;99.90
11532;DHT22;5822;51.000;5.874;2023-01-29T04:20:18;2.60;99.90
11532;DHT22;5822;51.000;5.874;2023-01-29T04:22:46;2.70;99.90
11532;DHT22;5822;51.000;5.874;2023-01-29T04:25:19;2.70;99.90
11532;DHT22;5822;51.000;5.874;2023-01-29T04:33:02;2.80;99.90
11532;DHT22;5822;51.000;5.874;2023-01-29T04:38:25;2.90;99.90
11532;DHT22;5822;51.000;5.874;2023-01-29T04:43:34;2.90;99.90
11532;DHT22;5822;51.000;5.874;2023-01-29T04:46:26;2.90;99.90
11532;DHT22;5822;51.000;5.874;2023-01-29T04:51:53;2.90;99.90
11532;DHT22;5822;51.000;5.874;2023-01-29T04:54:27;2.90;99.90
11532;DHT22;5822;51.000;5.874;2023-01-29T04:59:34;2.90;99.90
11532;DHT22;5822;51.000;5.874;2023-01-29T05:02:00;2.90;99.90
11532;DHT22;5822;51.000;5.874;2023-01-29T05:04:30;2.80;99.90
11532;DHT22;5822;51.000;5.874;2023-01-29T05:07:01;2.80;99.90
11532;DHT22;5822;51.000;5.874;2023-01-29T05:09:28;2.80;99.90
11532;DHT22;5822;51.000;5.874;2023-01-29T05:11:55;2.90;99.90
11532;DHT22;5822;51.000;5.874;2023-01-29T05:14:22;2.80;99.90
11532;DHT22;5822;51.000;5.874;2023-01-29T05:16:51;2.90;99.90
11532;DHT22;5822;51.000;5.874;2023-01-29T05:19:17;3.00;99.90
11532;DHT22;5822;51.000;5.874;2023-01-29T05:21:45;3.00;99.90
11532;DHT22;5822;51.000;5.874;2023-01-29T05:24:20;3.00;99.90
11532;DHT22;5822;51.000;5.874;2023-01-29T05:26:47;2.90;99.90
11532;DHT22;5822;51.000;5.874;2023-01-29T05:29:34;2.90;99.90
11532;DHT22;5822;51.000;5.874;2023-01-29T05:32:00;3.00;99.90
11532;DHT22;5822;51.000;5.874;2023-01-29T05:34:25;3.00;99.90
11532;DHT22;5822;51.000;5.874;2023-01-29T05:36:51;3.00;99.90
11532;DHT22;5822;51.000;5.874;2023-01-29T05:39:17;3.00;99.90
11532;DHT22;5822;51.000;5.874;2023-01-29T05:41:43;3.10;99.90
11532;DHT22;5822;51.000;5.874;2023-01-29T05:44:09;3.10;99.90
11532;DHT22;5822;51.000;5.874;2023-01-29T05:46:35;3.00;99.90
11532;DHT22;5822;51.000;5.874;2023-01-29T05:49:01;3.00;99.90
11532;DHT22;5822;51.000;5.874;2023-01-29T05:51:27;3.00;99.90
11532;DHT22;5822;51.000;5.874;2023-01-29T05:53:52;2.90;99.90
11532;DHT22;5822;51.000;5.874;2023-01-29T05:56:18;3.00;99.90
11532;DHT22;5822;51.000;5.874;2023-01-29T05:58:44;3.00;99.90
11532;DHT22;5822;51.000;5.874;2023-01-29T06:01:12;3.00;99.90
11532;DHT22;5822;51.000;5.874;2023-01-29T06:03:38;3.10;99.90
11532;DHT22;5822;51.000;5.874;2023-01-29T06:06:04;3.10;99.90
11532;DHT22;5822;51.000;5.874;2023-01-29T06:08:30;3.00;99.90
11532;DHT22;5822;51.000;5.874;2023-01-29T06:10:55;3.00;99.90
11532;DHT22;5822;51.000;5.874;2023-01-29T06:13:21;3.00;99.90
11532;DHT22;5822;51.000;5.874;2023-01-29T06:15:47;3.00;99.90
11532;DHT22;5822;51.000;5.874;2023-01-29T06:18:12;3.30;99.90
11532;DHT22;5822;51.000;5.874;2023-01-29T06:20:38;3.10;99.90
11532;DHT22;5822;51.000;5.874;2023-01-29T06:23:04;3.00;99.90
11532;DHT22;5822;51.000;5.874;2023-01-29T06:25:33;3.00;99.90
11532;DHT22;5822;51.000;5.874;2023-01-29T06:27:59;3.00;99.90
11532;DHT22;5822;51.000;5.874;2023-01-29T06:30:25;3.00;99.90
11532;DHT22;5822;51.000;5.874;2023-01-29T06:32:55;3.00;99.90
11532;DHT22;5822;51.000;5.874;2023-01-29T06:35:20;3.00;99.90
11532;DHT22;5822;51.000;5.874;2023-01-29T06:37:46;3.10;99.90
11532;DHT22;5822;51.000;5.874;2023-01-29T06:40:12;3.00;99.90
11532;DHT22;5822;51.000;5.874;2023-01-29T06:42:37;3.10;99.90
11532;DHT22;5822;51.000;5.874;2023-01-29T06:45:03;3.00;99.90
11532;DHT22;5822;51.000;5.874;2023-01-29T06:47:29;3.10;99.90
11532;DHT22;5822;51.000;5.874;2023-01-29T06:49:55;3.20;99.90
11532;DHT22;5822;51.000;5.874;2023-01-29T06:52:21;3.10;99.90
11532;DHT22;5822;51.000;5.874;2023-01-29T06:54:46;3.00;99.90
11532;DHT22;5822;51.000;5.874;2023-01-29T06:57:12;3.30;99.90
11532;DHT22;5822;51.000;5.874;2023-01-29T06:59:38;3.30;99.90
11532;DHT22;5822;51.000;5.874;2023-01-29T07:02:04;3.30;99.90
11532;DHT22;5822;51.000;5.874;2023-01-29T07:04:29;3.30;99.90
11532;DHT22;5822;51.000;5.874;2023-01-29T07:06:55;3.20;99.90
11532;DHT22;5822;51.000;5.874;2023-01-29T07:09:20;3.10;99.90
11532;DHT22;5822;51.000;5.874;2023-01-29T07:11:46;3.10;99.90
11532;DHT22;5822;51.000;5.874;2023-01-29T07:14:12;3.10;99.90
11532;DHT22;5822;51.000;5.874;2023-01-29T07:16:38;3.10;99.90
11532;DHT22;5822;51.000;5.874;2023-01-29T07:19:03;3.10;99.90
11532;DHT22;5822;51.000;5.874;2023-01-29T07:21:29;3.10;99.90
11532;DHT22;5822;51.000;5.874;2023-01-29T07:23:54;3.20;99.90
11532;DHT22;5822;51.000;5.874;2023-01-29T07:26:20;3.20;99.90
11532;DHT22;5822;51.000;5.874;2023-01-29T07:28:46;3.20;99.90
11532;DHT22;5822;51.000;5.874;2023-01-29T07:31:12;3.20;99.90
11532;DHT22;5822;51.000;5.874;2023-01-29T07:33:38;3.20;99.90
11532;DHT22;5822;51.000;5.874;2023-01-29T07:36:08;3.30;99.90
11532;DHT22;5822;51.000;5.874;2023-01-29T07:38:34;3.30;99.90
11532;DHT22;5822;51.000;5.874;2023-01-29T07:40:59;3.30;99.90
11532;DHT22;5822;51.000;5.874;2023-01-29T07:43:25;3.30;99.90
11532;DHT22;5822;51.000;5.874;2023-01-29T07:45:51;3.20;99.90
11532;DHT22;5822;51.000;5.874;2023-01-29T07:48:17;3.20;99.90
11532;DHT22;5822;51.000;5.874;2023-01-29T07:50:42;3.20;99.90
11532;DHT22;5822;51.000;5.874;2023-01-29T07:53:13;3.20;99.90
11532;DHT22;5822;51.000;5.874;2023-01-29T07:55:39;3.20;99.90
11532;DHT22;5822;51.000;5.874;2023-01-29T07:58:05;3.30;99.90
11532;DHT22;5822;51.000;5.874;2023-01-29T08:00:31;3.20;99.90
11532;DHT22;5822;51.000;5.874;2023-01-29T08:03:05;3.30;99.90
11532;DHT22;5822;51.000;5.874;2023-01-29T08:05:32;3.30;99.90
11532;DHT22;5822;51.000;5.874;2023-01-29T08:07:58;3.30;99.90
11532;DHT22;5822;51.000;5.874;2023-01-29T08:10:24;3.30;99.90
11532;DHT22;5822;51.000;5.874;2023-01-29T08:12:54;3.30;99.90
11532;DHT22;5822;51.000;5.874;2023-01-29T08:15:20;3.30;99.90
11532;DHT22;5822;51.000;5.874;2023-01-29T08:17:46;3.30;99.90
11532;DHT22;5822;51.000;5.874;2023-01-29T08:20:12;3.40;99.90
11532;DHT22;5822;51.000;5.874;2023-01-29T08:22:37;3.40;99.90
11532;DHT22;5822;51.000;5.874;2023-01-29T08:25:03;3.30;99.90
11532;DHT22;5822;51.000;5.874;2023-01-29T08:27:29;3.40;99.90
11532;DHT22;5822;51.000;5.874;2023-01-29T08:29:55;3.40;99.90
11532;DHT22;5822;51.000;5.874;2023-01-29T08:32:20;3.50;99.90
11532;DHT22;5822;51.000;5.874;2023-01-29T08:34:46;3.40;99.90
11532;DHT22;5822;51.000;5.874;2023-01-29T08:37:12;3.50;99.90
11532;DHT22;5822;51.000;5.874;2023-01-29T08:39:37;3.60;99.90
11532;DHT22;5822;51.000;5.874;2023-01-29T08:42:03;3.60;99.90
11532;DHT22;5822;51.000;5.874;2023-01-29T08:44:28;3.60;99.90
11532;DHT22;5822;51.000;5.874;2023-01-29T08:46:54;3.60;99.90
11532;DHT22;5822;51.000;5.874;2023-01-29T08:49:20;3.60;99.90
11532;DHT22;5822;51.000;5.874;2023-01-29T08:51:45;3.60;99.90
11532;DHT22;5822;51.000;5.874;2023-01-29T08:54:11;3.60;99.90
11532;DHT22;5822;51.000;5.874;2023-01-29T08:56:37;3.70;99.90
11532;DHT22;5822;51.000;5.874;2023-01-29T08:59:02;3.70;99.90
11532;DHT22;5822;51.000;5.874;2023-01-29T09:01:28;3.70;99.90
11532;DHT22;5822;51.000;5.874;2023-01-29T09:03:54;3.70;99.90
11532;DHT22;5822;51.000;5.874;2023-01-29T09:06:20;3.70;99.90
11532;DHT22;5822;51.000;5.874;2023-01-29T09:08:45;3.70;99.90
11532;DHT22;5822;51.000;5.874;2023-01-29T09:11:12;3.70;99.90
11532;DHT22;5822;51.000;5.874;2023-01-29T09:13:37;3.60;99.90
11532;DHT22;5822;51.000;5.874;2023-01-29T09:16:04;3.60;99.90
11532;DHT22;5822;51.000;5.874;2023-01-29T09:18:30;3.60;99.90
11532;DHT22;5822;51.000;5.874;2023-01-29T09:20:56;3.70;99.90
11532;DHT22;5822;51.000;5.874;2023-01-29T09:23:22;3.70;99.90
11532;DHT22;5822;51.000;5.874;2023-01-29T09:25:48;3.70;99.90
11532;DHT22;5822;51.000;5.874;2023-01-29T09:28:14;3.70;99.90
11532;DHT22;5822;51.000;5.874;2023-01-29T09:30:42;3.70;99.90
11532;DHT22;5822;51.000;5.874;2023-01-29T09:33:07;3.70;99.90
11532;DHT22;5822;51.000;5.874;2023-01-29T09:35:33;3.70;99.90
11532;DHT22;5822;51.000;5.874;2023-01-29T09:37:59;3.70;99.90
11532;DHT22;5822;51.000;5.874;2023-01-29T09:40:34;3.80;99.90
11532;DHT22;5822;51.000;5.874;2023-01-29T09:43:21;3.80;99.90
11532;DHT22;5822;51.000;5.874;2023-01-29T09:45:59;3.80;99.90
11532;DHT22;5822;51.000;5.874;2023-01-29T09:48:28;3.90;99.90
11532;DHT22;5822;51.000;5.874;2023-01-29T09:50:57;3.90;99.90
11532;DHT22;5822;51.000;5.874;2023-01-29T09:53:38;3.90;99.90
11532;DHT22;5822;51.000;5.874;2023-01-29T09:56:13;3.80;99.90
11532;DHT22;5822;51.000;5.874;2023-01-29T09:58:42;3.90;99.90
11532;DHT22;5822;51.000;5.874;2023-01-29T10:06:42;3.90;99.90
11532;DHT22;5822;51.000;5.874;2023-01-29T10:23:25;4.10;99.90
11532;DHT22;5822;51.000;5.874;2023-01-29T10:25:52;4.20;99.90
11532;DHT22;5822;51.000;5.874;2023-01-29T10:28:22;4.20;99.90
11532;DHT22;5822;51.000;5.874;2023-01-29T10:30:55;4.30;99.90
11532;DHT22;5822;51.000;5.874;2023-01-29T10:33:42;4.40;99.90
11532;DHT22;5822;51.000;5.874;2023-01-29T10:36:48;4.40;99.90
11532;DHT22;5822;51.000;5.874;2023-01-29T10:39:22;4.40;99.90
11532;DHT22;5822;51.000;5.874;2023-01-29T10:45:13;4.50;99.90
11532;DHT22;5822;51.000;5.874;2023-01-29T10:56:18;4.50;99.90
11532;DHT22;5822;51.000;5.874;2023-01-29T10:59:12;4.60;99.90
11532;DHT22;5822;51.000;5.874;2023-01-29T11:01:41;4.70;99.90
11532;DHT22;5822;51.000;5.874;2023-01-29T11:04:10;4.80;99.90
11532;DHT22;5822;51.000;5.874;2023-01-29T11:06:37;4.80;99.90
11532;DHT22;5822;51.000;5.874;2023-01-29T11:14:10;4.70;99.90
11532;DHT22;5822;51.000;5.874;2023-01-29T11:16:41;4.70;99.90
11532;DHT22;5822;51.000;5.874;2023-01-29T11:19:07;4.60;99.90
11532;DHT22;5822;51.000;5.874;2023-01-29T11:21:58;4.70;99.90
11532;DHT22;5822;51.000;5.874;2023-01-29T11:24:25;4.70;99.90
11532;DHT22;5822;51.000;5.874;2023-01-29T11:26:53;4.70;99.90
11532;DHT22;5822;51.000;5.874;2023-01-29T11:37:43;4.80;99.90
11532;DHT22;5822;51.000;5.874;2023-01-29T11:42:47;4.90;99.90
11532;DHT22;5822;51.000;5.874;2023-01-29T11:45:25;4.90;99.90
11532;DHT22;5822;51.000;5.874;2023-01-29T11:47:53;4.90;99.90
11532;DHT22;5822;51.000;5.874;2023-01-29T11:50:24;5.00;99.90
11532;DHT22;5822;51.000;5.874;2023-01-29T11:52:51;5.00;99.90
11532;DHT22;5822;51.000;5.874;2023-01-29T11:55:19;5.00;99.90
11532;DHT22;5822;51.000;5.874;2023-01-29T11:58:11;5.00;99.90
11532;DHT22;5822;51.000;5.874;2023-01-29T12:00:41;5.10;99.90
11532;DHT22;5822;51.000;5.874;2023-01-29T12:03:20;5.10;99.90
11532;DHT22;5822;51.000;5.874;2023-01-29T12:05:57;5.10;99.90
11532;DHT22;5822;51.000;5.874;2023-01-29T12:08:25;5.20;99.90
11532;DHT22;5822;51.000;5.874;2023-01-29T12:11:13;5.20;99.90
11532;DHT22;5822;51.000;5.874;2023-01-29T12:13:41;5.20;99.90
11532;DHT22;5822;51.000;5.874;2023-01-29T12:16:21;5.20;99.90
11532;DHT22;5822;51.000;5.874;2023-01-29T12:18:55;5.20;99.90
11532;DHT22;5822;51.000;5.874;2023-01-29T12:21:46;5.40;99.90
11532;DHT22;5822;51.000;5.874;2023-01-29T12:30:21;5.30;99.90
11532;DHT22;5822;51.000;5.874;2023-01-29T12:35:37;5.20;99.90
11532;DHT22;5822;51.000;5.874;2023-01-29T12:40:59;5.20;99.90
11532;DHT22;5822;51.000;5.874;2023-01-29T12:46:29;5.30;99.90
11532;DHT22;5822;51.000;5.874;2023-01-29T12:48:59;5.20;99.90
11532;DHT22;5822;51.000;5.874;2023-01-29T12:51:36;5.20;99.90
11532;DHT22;5822;51.000;5.874;2023-01-29T12:54:08;5.30;99.90
11532;DHT22;5822;51.000;5.874;2023-01-29T12:56:43;5.20;99.90
11532;DHT22;5822;51.000;5.874;2023-01-29T13:02:10;5.30;99.90
11532;DHT22;5822;51.000;5.874;2023-01-29T13:04:41;5.30;99.90
11532;DHT22;5822;51.000;5.874;2023-01-29T13:07:19;5.40;99.90
11532;DHT22;5822;51.000;5.874;2023-01-29T13:09:52;5.40;99.90
11532;DHT22;5822;51.000;5.874;2023-01-29T13:12:20;5.40;99.90
11532;DHT22;5822;51.000;5.874;2023-01-29T13:14:55;5.40;99.90
11532;DHT22;5822;51.000;5.874;2023-01-29T13:17:43;5.40;99.90
11532;DHT22;5822;51.000;5.874;2023-01-29T13:20:19;5.50;99.90
11532;DHT22;5822;51.000;5.874;2023-01-29T13:22:47;5.60;99.90
11532;DHT22;5822;51.000;5.874;2023-01-29T13:25:16;5.70;99.90
11532;DHT22;5822;51.000;5.874;2023-01-29T13:27:42;5.70;99.90
11532;DHT22;5822;51.000;5.874;2023-01-29T13:30:23;5.60;99.90
11532;DHT22;5822;51.000;5.874;2023-01-29T13:32:51;5.70;99.90
11532;DHT22;5822;51.000;5.874;2023-01-29T13:35:20;5.60;99.90
11532;DHT22;5822;51.000;5.874;2023-01-29T13:37:49;5.80;99.90
11532;DHT22;5822;51.000;5.874;2023-01-29T13:40:24;5.70;99.90
11532;DHT22;5822;51.000;5.874;2023-01-29T13:42:51;5.80;99.90
11532;DHT22;5822;51.000;5.874;2023-01-29T13:45:42;5.80;99.90
11532;DHT22;5822;51.000;5.874;2023-01-29T13:48:16;5.80;99.90
11532;DHT22;5822;51.000;5.874;2023-01-29T13:50:44;5.90;99.90
11532;DHT22;5822;51.000;5.874;2023-01-29T13:53:24;6.00;99.90
11532;DHT22;5822;51.000;5.874;2023-01-29T13:55:51;5.90;99.90
11532;DHT22;5822;51.000;5.874;2023-01-29T14:00:56;6.00;99.90
11532;DHT22;5822;51.000;5.874;2023-01-29T14:11:33;5.90;99.90
11532;DHT22;5822;51.000;5.874;2023-01-29T14:13:59;5.80;99.90
11532;DHT22;5822;51.000;5.874;2023-01-29T14:16:30;5.80;99.90
11532;DHT22;5822;51.000;5.874;2023-01-29T14:18:59;5.80;99.90
11532;DHT22;5822;51.000;5.874;2023-01-29T14:21:31;5.80;99.90
11532;DHT22;5822;51.000;5.874;2023-01-29T14:24:08;6.00;99.90
11532;DHT22;5822;51.000;5.874;2023-01-29T14:29:04;6.00;99.90
11532;DHT22;5822;51.000;5.874;2023-01-29T14:34:12;6.00;99.90
11532;DHT22;5822;51.000;5.874;2023-01-29T14:36:40;6.10;99.90
11532;DHT22;5822;51.000;5.874;2023-01-29T14:39:21;6.00;99.90
11532;DHT22;5822;51.000;5.874;2023-01-29T14:41:49;6.00;99.90
11532;DHT22;5822;51.000;5.874;2023-01-29T14:49:53;6.00;99.90
11532;DHT22;5822;51.000;5.874;2023-01-29T14:52:34;6.00;99.90
11532;DHT22;5822;51.000;5.874;2023-01-29T14:55:04;6.10;99.90
11532;DHT22;5822;51.000;5.874;2023-01-29T14:57:31;5.90;99.90
11532;DHT22;5822;51.000;5.874;2023-01-29T15:00:03;5.90;99.90
11532;DHT22;5822;51.000;5.874;2023-01-29T15:02:42;6.10;99.90
11532;DHT22;5822;51.000;5.874;2023-01-29T15:05:34;6.10;99.90
11532;DHT22;5822;51.000;5.874;2023-01-29T15:10:56;6.00;99.90
11532;DHT22;5822;51.000;5.874;2023-01-29T15:14:04;5.90;99.90
11532;DHT22;5822;51.000;5.874;2023-01-29T15:16:46;5.90;99.90
11532;DHT22;5822;51.000;5.874;2023-01-29T15:19:40;5.90;99.90
11532;DHT22;5822;51.000;5.874;2023-01-29T15:22:16;6.00;99.90
11532;DHT22;5822;51.000;5.874;2023-01-29T15:24:43;5.90;99.90
11532;DHT22;5822;51.000;5.874;2023-01-29T15:27:19;5.90;99.90
11532;DHT22;5822;51.000;5.874;2023-01-29T15:29:55;5.90;99.90
11532;DHT22;5822;51.000;5.874;2023-01-29T15:32:26;6.00;99.90
11532;DHT22;5822;51.000;5.874;2023-01-29T15:34:56;6.00;99.90
11532;DHT22;5822;51.000;5.874;2023-01-29T15:37:27;6.00;99.90
11532;DHT22;5822;51.000;5.874;2023-01-29T15:39:53;6.00;99.90
11532;DHT22;5822;51.000;5.874;2023-01-29T15:42:19;5.90;99.90
11532;DHT22;5822;51.000;5.874;2023-01-29T15:44:50;6.00;99.90
11532;DHT22;5822;51.000;5.874;2023-01-29T15:47:17;6.00;99.90
11532;DHT22;5822;51.000;5.874;2023-01-29T15:49:44;5.90;99.90
11532;DHT22;5822;51.000;5.874;2023-01-29T15:52:18;6.00;99.90
11532;DHT22;5822;51.000;5.874;2023-01-29T15:54:45;6.00;99.90
11532;DHT22;5822;51.000;5.874;2023-01-29T15:57:27;6.00;99.90
11532;DHT22;5822;51.000;5.874;2023-01-29T15:59:55;6.00;99.90
11532;DHT22;5822;51.000;5.874;2023-01-29T16:02:35;6.20;99.90
11532;DHT22;5822;51.000;5.874;2023-01-29T16:05:24;6.10;99.90
11532;DHT22;5822;51.000;5.874;2023-01-29T16:07:53;6.10;99.90
11532;DHT22;5822;51.000;5.874;2023-01-29T16:10:22;6.00;99.90
11532;DHT22;5822;51.000;5.874;2023-01-29T16:12:49;6.00;99.90
11532;DHT22;5822;51.000;5.874;2023-01-29T16:15:27;6.00;99.90
11532;DHT22;5822;51.000;5.874;2023-01-29T16:17:55;5.90;99.90
11532;DHT22;5822;51.000;5.874;2023-01-29T16:20:35;5.90;99.90
11532;DHT22;5822;51.000;5.874;2023-01-29T16:23:03;5.90;99.90
11532;DHT22;5822;51.000;5.874;2023-01-29T16:25:29;5.80;99.90
11532;DHT22;5822;51.000;5.874;2023-01-29T16:27:56;5.80;99.90
11532;DHT22;5822;51.000;5.874;2023-01-29T16:30:26;5.80;99.90
11532;DHT22;5822;51.000;5.874;2023-01-29T16:32:52;5.90;99.90
11532;DHT22;5822;51.000;5.874;2023-01-29T16:35:18;5.90;99.90
11532;DHT22;5822;51.000;5.874;2023-01-29T16:37:48;5.90;99.90
11532;DHT22;5822;51.000;5.874;2023-01-29T16:40:30;5.90;99.90
11532;DHT22;5822;51.000;5.874;2023-01-29T16:45:41;5.90;99.90
11532;DHT22;5822;51.000;5.874;2023-01-29T16:48:39;5.90;99.90
11532;DHT22;5822;51.000;5.874;2023-01-29T16:51:12;5.80;99.90
11532;DHT22;5822;51.000;5.874;2023-01-29T16:53:38;5.90;99.90
11532;DHT22;5822;51.000;5.874;2023-01-29T16:56:06;5.90;99.90
11532;DHT22;5822;51.000;5.874;2023-01-29T16:58:33;5.80;99.90
11532;DHT22;5822;51.000;5.874;2023-01-29T17:01:02;5.80;99.90
11532;DHT22;5822;51.000;5.874;2023-01-29T17:03:32;5.90;99.90
11532;DHT22;5822;51.000;5.874;2023-01-29T17:06:07;5.80;99.90
11532;DHT22;5822;51.000;5.874;2023-01-29T17:08:33;5.80;99.90
11532;DHT22;5822;51.000;5.874;2023-01-29T17:10:59;5.80;99.90
11532;DHT22;5822;51.000;5.874;2023-01-29T17:13:31;5.80;99.90
11532;DHT22;5822;51.000;5.874;2023-01-29T17:16:00;5.80;99.90
11532;DHT22;5822;51.000;5.874;2023-01-29T17:18:29;5.80;99.90
11532;DHT22;5822;51.000;5.874;2023-01-29T17:20:54;5.90;99.90
11532;DHT22;5822;51.000;5.874;2023-01-29T17:23:21;5.80;99.90
11532;DHT22;5822;51.000;5.874;2023-01-29T17:25:47;5.80;99.90
11532;DHT22;5822;51.000;5.874;2023-01-29T17:28:16;5.80;99.90
11532;DHT22;5822;51.000;5.874;2023-01-29T17:30:43;5.80;99.90
11532;DHT22;5822;51.000;5.874;2023-01-29T17:35:39;5.80;99.90
11532;DHT22;5822;51.000;5.874;2023-01-29T17:38:12;5.80;99.90
11532;DHT22;5822;51.000;5.874;2023-01-29T17:40:45;5.80;99.90
11532;DHT22;5822;51.000;5.874;2023-01-29T17:43:11;5.80;99.90
11532;DHT22;5822;51.000;5.874;2023-01-29T17:45:38;5.80;99.90
11532;DHT22;5822;51.000;5.874;2023-01-29T17:48:04;5.90;99.90
11532;DHT22;5822;51.000;5.874;2023-01-29T17:50:36;5.80;99.90
11532;DHT22;5822;51.000;5.874;2023-01-29T17:53:03;5.80;99.90
11532;DHT22;5822;51.000;5.874;2023-01-29T17:55:29;5.80;99.90
11532;DHT22;5822;51.000;5.874;2023-01-29T17:57:54;5.80;99.90
11532;DHT22;5822;51.000;5.874;2023-01-29T18:00:22;5.80;99.90
11532;DHT22;5822;51.000;5.874;2023-01-29T18:02:48;5.90;99.90
11532;DHT22;5822;51.000;5.874;2023-01-29T18:05:15;5.80;99.90
11532;DHT22;5822;51.000;5.874;2023-01-29T18:07:42;5.80;99.90
11532;DHT22;5822;51.000;5.874;2023-01-29T18:10:17;5.80;99.90
11532;DHT22;5822;51.000;5.874;2023-01-29T18:12:43;5.90;99.90
11532;DHT22;5822;51.000;5.874;2023-01-29T18:15:10;5.90;99.90
11532;DHT22;5822;51.000;5.874;2023-01-29T18:17:36;5.90;99.90
11532;DHT22;5822;51.000;5.874;2023-01-29T18:20:03;5.80;99.90
11532;DHT22;5822;51.000;5.874;2023-01-29T18:22:28;5.80;99.90
11532;DHT22;5822;51.000;5.874;2023-01-29T18:24:54;5.90;99.90
11532;DHT22;5822;51.000;5.874;2023-01-29T18:27:20;5.70;99.90
11532;DHT22;5822;51.000;5.874;2023-01-29T18:29:45;5.70;99.90
11532;DHT22;5822;51.000;5.874;2023-01-29T18:32:13;5.70;99.90
11532;DHT22;5822;51.000;5.874;2023-01-29T18:34:38;5.70;99.90
11532;DHT22;5822;51.000;5.874;2023-01-29T18:37:05;5.70;99.90
11532;DHT22;5822;51.000;5.874;2023-01-29T18:39:31;5.80;99.90
11532;DHT22;5822;51.000;5.874;2023-01-29T18:41:56;5.80;99.90
11532;DHT22;5822;51.000;5.874;2023-01-29T18:44:22;5.80;99.90